Bookmark and Share
Track history (hours):
 

Pacific Journey

Last reported at 2014-Apr-16 08:30 UTC. Time now 2014-Apr-21 12:22 UTC.
Position N 33°48' E 129°08'.

Length 180 m; draft 6.2 m.

Type: Cargo ship. MMSI: 371467000.

NotesDate/timePositionNaut miles runAvg speedWind from/ knotsBaromVisibWave heightAir tempDewpointWater temp
2014-Apr-16 08:30N 33°48' E 129°08'30213.8
2014-Apr-15 10:33N 31°27' E 123°51'10711.8
2014-Apr-15 01:29N 31°15' E 121°47'1010.5
2014-Apr-15 00:34N 31°22' E 121°38'1010.3
2014-Apr-14 23:34N 31°27' E 121°28'1111.3
2014-Apr-14 22:33N 31°35' E 121°18'1414.0
2014-Apr-14 21:34N 31°44' E 121°06'9 9.2
2014-Apr-14 20:33N 31°49' E 120°57'0 0.0
2014-Apr-14 14:32N 31°49' E 120°57'0 0.0
2014-Apr-14 10:32N 31°49' E 120°57'0 0.0
2014-Apr-14 06:32N 31°49' E 120°57'0 0.0
2014-Apr-13 22:32N 31°49' E 120°57'0 0.0
2014-Apr-13 21:23N 31°49' E 120°57'0 0.0
2014-Apr-13 20:29N 31°49' E 120°57'0 0.0
2014-Apr-13 19:32N 31°49' E 120°57'0 0.0
2014-Apr-13 18:05N 31°49' E 120°57'0 0.0
2014-Apr-13 17:29N 31°49' E 120°57'0 0.0
2014-Apr-13 16:23N 31°49' E 120°57'0 0.0
2014-Apr-13 15:17N 31°49' E 120°57'0 0.0
2014-Apr-13 14:11N 31°49' E 120°57'0 0.0
2014-Apr-13 13:26N 31°49' E 120°57'0 0.0
2014-Apr-13 12:11N 31°49' E 120°57'0 0.0
2014-Apr-13 11:29N 31°49' E 120°57'0 0.0
2014-Apr-13 10:32N 31°49' E 120°57'0 0.0
2014-Apr-13 08:14N 31°49' E 120°57'0 0.0
2014-Apr-13 07:11N 31°49' E 120°57'0 0.0
2014-Apr-13 06:29N 31°49' E 120°57'0 0.0
2014-Apr-13 05:29N 31°49' E 120°57'0 0.0
2014-Apr-13 04:23N 31°49' E 120°57'0 0.0
2014-Apr-13 02:29N 31°49' E 120°57'0 0.0
2014-Apr-13 00:33N 31°49' E 120°57'2 1.6
2014-Apr-12 23:33N 31°49' E 120°55'6 5.4
2014-Apr-12 22:31N 31°54' E 120°54'0 0.0
2014-Apr-12 21:15N 31°54' E 120°54'0 0.0
2014-Apr-12 20:33N 31°54' E 120°54'0 0.0
2014-Apr-12 19:30N 31°54' E 120°54'0 0.4
2014-Apr-12 18:33N 31°54' E 120°53'10 8.7
2014-Apr-12 17:22N 31°46' E 121°01'1011.6
2014-Apr-12 16:31N 31°41' E 121°11'1212.4
2014-Apr-12 15:33N 31°32' E 121°21'1110.8
2014-Apr-12 14:33N 31°25' E 121°30'1110.0
2014-Apr-12 13:30N 31°20' E 121°41'12 9.5
2014-Apr-12 12:13N 31°16' E 121°54'124 7.9
2014-Apr-11 20:28N 29°60' E 123°49'  

Dump ship's entire track history

sailing weather and tide predictions

Pacific Journey — 3FFE — position and weather